createdAt,value
2018-09-29T05:49:44.032Z,1.00
2018-09-29T05:52:12.532Z,0.77
2018-09-29T05:54:40.962Z,1.10
2018-09-29T05:57:09.721Z,1.10
2018-09-29T05:59:38.117Z,1.20
2018-09-29T06:02:06.451Z,1.17
2018-09-29T06:04:34.855Z,1.30
2018-09-29T06:07:03.436Z,1.50
2018-09-29T06:09:31.808Z,1.10
2018-09-29T06:12:00.500Z,1.30
2018-09-29T06:14:28.968Z,1.37
2018-09-29T06:16:57.323Z,1.27
2018-09-29T06:19:25.840Z,1.17
2018-09-29T06:21:54.881Z,1.63
2018-09-29T06:24:23.387Z,1.50
2018-09-29T06:26:52.314Z,1.40
2018-09-29T06:29:20.683Z,1.30
2018-09-29T06:31:49.045Z,1.30
2018-09-29T06:34:17.909Z,1.30
2018-09-29T06:36:47.241Z,1.60
2018-09-29T06:39:15.662Z,1.30
2018-09-29T06:41:44.627Z,1.30
2018-09-29T06:44:13.117Z,1.30
2018-09-29T06:46:41.464Z,1.60
2018-09-29T06:49:10.172Z,1.37
2018-09-29T06:51:38.528Z,1.40
2018-09-29T06:54:07.015Z,1.40
2018-09-29T06:56:35.428Z,1.40
2018-09-29T06:59:03.777Z,1.20
2018-09-29T07:01:32.155Z,1.33
2018-09-29T07:04:01.567Z,1.23
2018-09-29T07:06:29.913Z,1.20
2018-09-29T07:08:58.315Z,1.30
2018-09-29T07:11:26.711Z,1.50
2018-09-29T07:13:55.559Z,1.63
2018-09-29T07:16:23.971Z,1.80
2018-09-29T07:18:52.373Z,1.30
2018-09-29T07:21:20.860Z,1.73
2018-09-29T07:23:49.984Z,1.63
2018-09-29T07:26:18.824Z,1.50
2018-09-29T07:28:47.159Z,1.27
2018-09-29T07:31:15.683Z,0.80
2018-09-29T07:33:44.363Z,1.10
2018-09-29T07:36:12.719Z,0.90
2018-09-29T07:38:41.092Z,0.93
2018-09-29T07:41:09.804Z,0.93
2018-09-29T07:43:38.164Z,0.70
2018-09-29T07:46:06.540Z,0.50
2018-09-29T07:48:34.947Z,1.00
2018-09-29T07:51:03.351Z,0.87
2018-09-29T07:53:31.779Z,0.60
2018-09-29T07:56:00.598Z,0.80
2018-09-29T07:58:28.903Z,0.57
2018-09-29T08:00:57.287Z,0.60
2018-09-29T08:03:26.148Z,0.60
2018-09-29T08:05:54.611Z,0.70
2018-09-29T08:08:22.951Z,0.70
2018-09-29T08:10:51.537Z,0.60
2018-09-29T08:13:19.935Z,0.60
2018-09-29T08:15:48.400Z,0.60
2018-09-29T08:18:17.155Z,0.60
2018-09-29T08:20:45.515Z,0.60
2018-09-29T08:23:14.015Z,0.77
2018-09-29T08:25:42.834Z,0.93
2018-09-29T08:28:11.236Z,0.50
2018-09-29T08:30:39.736Z,0.70
2018-09-29T08:33:08.201Z,2.58
2018-09-29T08:35:36.660Z,0.90
2018-09-29T08:38:05.455Z,3.17
2018-09-29T08:40:33.989Z,10.50
2018-09-29T08:43:02.455Z,12.63
2018-09-29T08:45:30.943Z,5.17
2018-09-29T08:47:59.755Z,3.10
2018-09-29T08:50:28.218Z,0.83
2018-09-29T08:52:57.166Z,0.50
2018-09-29T08:55:26.081Z,0.40
2018-09-29T08:57:54.489Z,0.50
2018-09-29T09:00:22.967Z,0.70
2018-09-29T09:02:51.939Z,1.20
2018-09-29T09:05:20.316Z,0.80
2018-09-29T09:07:48.761Z,0.80
2018-09-29T09:10:17.173Z,2.57
2018-09-29T09:12:45.636Z,2.53
2018-09-29T09:15:14.605Z,2.13
2018-09-29T09:17:43.200Z,0.90
2018-09-29T09:20:11.556Z,0.90
2018-09-29T09:22:39.959Z,0.90
2018-09-29T09:25:09.471Z,0.63
2018-09-29T09:27:37.855Z,0.70
2018-09-29T09:30:06.533Z,0.57
2018-09-29T09:32:35.231Z,0.60
2018-09-29T09:35:03.879Z,0.73
2018-09-29T09:37:32.289Z,0.90
2018-09-29T09:40:01.077Z,1.13
2018-09-29T09:42:29.498Z,1.10
2018-09-29T09:44:57.844Z,0.90
2018-09-29T09:47:26.251Z,0.93
2018-09-29T09:49:54.784Z,0.90
2018-09-29T09:52:23.168Z,0.80
2018-09-29T09:54:51.960Z,0.47
2018-09-29T09:57:20.469Z,0.60
2018-09-29T09:59:49.035Z,0.70
2018-09-29T10:02:22.657Z,0.60
2018-09-29T10:04:51.025Z,0.60
2018-09-29T10:07:19.587Z,0.50
2018-09-29T10:09:48.258Z,0.70
2018-09-29T10:12:16.639Z,0.70
2018-09-29T10:14:45.019Z,0.67
2018-09-29T10:17:13.804Z,0.50
2018-09-29T10:19:42.522Z,0.30
2018-09-29T10:22:10.859Z,0.60
2018-09-29T10:24:39.251Z,0.77
2018-09-29T10:27:07.769Z,0.53
2018-09-29T10:29:38.163Z,0.80
2018-09-29T10:32:07.188Z,0.33
2018-09-29T10:34:35.619Z,0.60
2018-09-29T10:37:04.049Z,0.63
2018-09-29T10:39:32.880Z,0.67
2018-09-29T10:42:03.420Z,0.60
2018-09-29T10:44:32.828Z,0.50
2018-09-29T10:47:03.699Z,0.50
2018-09-29T10:49:32.140Z,0.60
2018-09-29T10:52:00.968Z,0.63
2018-09-29T10:54:30.196Z,0.70
2018-09-29T10:56:58.592Z,0.60
2018-09-29T10:59:27.019Z,0.60
2018-09-29T11:01:55.483Z,0.70
2018-09-29T11:04:24.143Z,0.93
2018-09-29T11:06:52.955Z,0.80
2018-09-29T11:09:22.089Z,0.80
2018-09-29T11:11:50.431Z,0.80
2018-09-29T11:14:19.228Z,0.57
2018-09-29T11:16:47.775Z,1.07
2018-09-29T11:19:16.176Z,0.77
2018-09-29T11:21:44.976Z,0.60
2018-09-29T11:24:13.462Z,0.87
2018-09-29T11:26:44.409Z,0.60
2018-09-29T11:29:14.062Z,0.80
2018-09-29T11:31:42.486Z,0.83
2018-09-29T11:34:11.378Z,0.50
2018-09-29T11:36:41.056Z,0.90
2018-09-29T11:39:11.338Z,0.87
2018-09-29T11:41:40.051Z,0.80
2018-09-29T11:44:11.718Z,1.33
2018-09-29T11:46:42.024Z,0.90
2018-09-29T11:49:11.987Z,0.60
2018-09-29T11:51:42.344Z,1.00
2018-09-29T11:54:11.226Z,1.13
2018-09-29T11:56:40.079Z,0.70
2018-09-29T11:59:09.203Z,0.80
2018-09-29T12:01:37.665Z,1.17
2018-09-29T12:04:07.530Z,1.03
2018-09-29T12:06:35.927Z,0.73
2018-09-29T12:09:06.381Z,1.10
2018-09-29T12:11:35.297Z,1.10
2018-09-29T12:14:03.792Z,0.93
2018-09-29T12:16:32.165Z,0.83
2018-09-29T12:19:00.928Z,1.00
2018-09-29T12:21:29.530Z,0.90
2018-09-29T12:23:57.980Z,1.10
2018-09-29T12:26:26.670Z,1.10
2018-09-29T12:28:55.097Z,1.17
2018-09-29T12:31:23.805Z,1.10
2018-09-29T12:33:52.676Z,1.10
2018-09-29T12:36:21.079Z,0.90
2018-09-29T12:38:49.433Z,1.00
2018-09-29T12:41:18.274Z,1.27
2018-09-29T12:43:47.436Z,1.27
2018-09-29T12:46:15.831Z,1.37
2018-09-29T12:48:44.253Z,1.33
2018-09-29T12:51:12.687Z,1.30
2018-09-29T12:53:41.181Z,1.10
2018-09-29T12:56:10.293Z,1.20
2018-09-29T12:58:38.767Z,1.23
2018-09-29T13:01:08.494Z,1.00
2018-09-29T13:03:37.359Z,1.10
2018-09-29T13:06:05.720Z,1.00
2018-09-29T13:08:34.634Z,1.00
2018-09-29T13:11:03.613Z,1.10
2018-09-29T13:13:32.025Z,1.20
2018-09-29T13:16:00.551Z,0.90
2018-09-29T13:18:29.379Z,1.00
2018-09-29T13:20:57.917Z,1.10
2018-09-29T13:23:26.313Z,1.00
2018-09-29T13:25:54.872Z,1.00
2018-09-29T13:28:23.361Z,1.23
2018-09-29T13:30:51.731Z,1.13
2018-09-29T13:33:20.460Z,1.13
2018-09-29T13:35:48.803Z,1.20
2018-09-29T13:38:17.176Z,1.00
2018-09-29T13:40:45.611Z,1.10
2018-09-29T13:43:14.060Z,0.90
2018-09-29T13:45:42.591Z,0.90
2018-09-29T13:48:11.753Z,1.10
2018-09-29T13:50:40.116Z,1.00
2018-09-29T13:53:08.519Z,1.13
2018-09-29T13:55:37.361Z,0.67
2018-09-29T13:58:05.735Z,0.90
2018-09-29T14:00:34.124Z,0.80
2018-09-29T14:03:02.946Z,1.00
2018-09-29T14:05:31.879Z,0.80
2018-09-29T14:08:00.238Z,1.00
2018-09-29T14:10:29.026Z,0.73
2018-09-29T14:12:58.226Z,0.83
2018-09-29T14:15:26.704Z,0.63
2018-09-29T14:17:55.471Z,0.90
2018-09-29T14:20:23.841Z,0.80
2018-09-29T14:22:52.204Z,0.80
2018-09-29T14:25:20.935Z,0.97
2018-09-29T14:27:49.369Z,0.80
2018-09-29T14:30:17.860Z,1.00
2018-09-29T14:32:46.759Z,0.93
2018-09-29T14:35:15.142Z,0.90
2018-09-29T14:37:43.559Z,0.60
2018-09-29T14:40:11.950Z,1.00
2018-09-29T14:42:40.401Z,0.77
2018-09-29T14:45:09.079Z,0.73
2018-09-29T14:47:37.380Z,1.17
2018-09-29T14:50:06.216Z,1.00
2018-09-29T14:52:34.799Z,0.80
2018-09-29T14:55:03.804Z,0.90
2018-09-29T14:57:32.575Z,1.07
2018-09-29T15:00:01.508Z,0.83
2018-09-29T15:02:30.368Z,0.87
2018-09-29T15:04:59.135Z,1.00
2018-09-29T15:07:27.627Z,1.00
2018-09-29T15:09:56.325Z,0.60
2018-09-29T15:12:24.695Z,0.80
2018-09-29T15:14:53.898Z,0.80
2018-09-29T15:17:22.795Z,0.80
2018-09-29T15:19:51.402Z,0.93
2018-09-29T15:22:19.753Z,1.10
2018-09-29T15:24:48.746Z,1.00
2018-09-29T15:27:17.112Z,0.80
2018-09-29T15:29:45.531Z,1.10
2018-09-29T15:32:14.704Z,1.10
2018-09-29T15:34:43.077Z,1.20
2018-09-29T15:37:11.450Z,1.20
2018-09-29T15:39:40.347Z,1.10
2018-09-29T15:42:08.719Z,0.90
2018-09-29T15:44:37.133Z,1.10
2018-09-29T15:47:05.987Z,1.00
2018-09-29T15:49:34.365Z,1.13
2018-09-29T15:52:03.495Z,1.20
2018-09-29T15:54:32.467Z,1.10
2018-09-29T15:57:01.341Z,1.40
2018-09-29T15:59:29.679Z,1.30
2018-09-29T16:01:59.152Z,1.20
2018-09-29T16:04:27.640Z,0.90
2018-09-29T16:06:56.120Z,1.30
2018-09-29T16:09:24.674Z,2.43
2018-09-29T16:11:53.667Z,1.40
2018-09-29T16:14:23.067Z,1.50
2018-09-29T16:16:51.464Z,1.30
2018-09-29T16:19:20.003Z,1.67
2018-09-29T16:21:48.462Z,1.40
2018-09-29T16:24:17.108Z,1.00
2018-09-29T16:26:45.580Z,1.30
2018-09-29T16:29:14.952Z,1.30
2018-09-29T16:31:43.360Z,1.30
2018-09-29T16:34:11.820Z,1.50
2018-09-29T16:36:40.234Z,1.23
2018-09-29T16:39:11.480Z,1.20
2018-09-29T16:41:40.012Z,1.10
2018-09-29T16:44:08.355Z,1.23
2018-09-29T16:46:37.212Z,1.50
2018-09-29T16:49:05.544Z,1.00
2018-09-29T16:51:34.099Z,1.53
2018-09-29T16:54:02.552Z,1.40
2018-09-29T16:56:30.971Z,1.37
2018-09-29T16:58:59.487Z,1.70
2018-09-29T17:01:28.305Z,1.20
2018-09-29T17:03:56.727Z,1.57
2018-09-29T17:06:25.023Z,1.50
2018-09-29T17:08:53.849Z,1.60
2018-09-29T17:11:22.328Z,1.33
2018-09-29T17:13:51.477Z,1.70
2018-09-29T17:16:20.211Z,1.40
2018-09-29T17:18:49.419Z,1.20
2018-09-29T17:21:17.833Z,1.33
2018-09-29T17:23:46.588Z,1.30
2018-09-29T17:26:14.927Z,1.20
2018-09-29T17:28:43.419Z,1.63
2018-09-29T17:31:12.759Z,1.27
2018-09-29T17:33:41.192Z,1.03
2018-09-29T17:36:09.667Z,1.57
2018-09-29T17:38:38.471Z,1.40
2018-09-29T17:41:06.952Z,1.37
2018-09-29T17:43:35.351Z,1.20
2018-09-29T17:46:04.773Z,1.00
2018-09-29T17:48:33.139Z,1.30
2018-09-29T17:51:01.491Z,1.27
2018-09-29T17:53:30.037Z,1.30
2018-09-29T17:55:58.393Z,1.30
2018-09-29T17:58:26.771Z,1.60
2018-09-29T18:00:55.527Z,1.30
2018-09-29T18:03:24.038Z,1.27
2018-09-29T18:05:52.487Z,1.37
2018-09-29T18:08:21.421Z,1.40
2018-09-29T18:10:49.785Z,1.30
2018-09-29T18:13:18.304Z,1.23
2018-09-29T18:15:47.041Z,1.40
2018-09-29T18:18:15.582Z,1.20
2018-09-29T18:20:44.228Z,1.33
2018-09-29T18:23:12.768Z,1.03
2018-09-29T18:25:41.163Z,1.60
2018-09-29T18:28:09.630Z,1.30
2018-09-29T18:30:38.140Z,1.30
2018-09-29T18:33:06.487Z,1.30
2018-09-29T18:35:34.880Z,1.20
2018-09-29T18:38:03.314Z,1.40
2018-09-29T18:40:31.743Z,1.13
2018-09-29T18:43:00.205Z,1.20
2018-09-29T18:45:28.666Z,1.60
2018-09-29T18:47:57.584Z,1.33
2018-09-29T18:50:26.221Z,1.40
2018-09-29T18:52:56.831Z,1.10
2018-09-29T18:55:26.510Z,1.50
2018-09-29T18:57:54.983Z,1.40
2018-09-29T19:00:23.391Z,1.40
2018-09-29T19:02:52.777Z,1.57
2018-09-29T19:05:21.219Z,1.33
2018-09-29T19:07:50.609Z,1.50
2018-09-29T19:10:19.012Z,1.40
2018-09-29T19:12:47.431Z,1.10
2018-09-29T19:15:17.571Z,1.30
2018-09-29T19:17:46.672Z,1.67
2018-09-29T19:20:16.377Z,1.00
2018-09-29T19:22:45.131Z,1.20
2018-09-29T19:25:13.509Z,1.40
2018-09-29T19:27:42.915Z,1.20
2018-09-29T19:30:11.408Z,1.20
2018-09-29T19:32:39.848Z,1.50
2018-09-29T19:35:08.648Z,1.43
2018-09-29T19:37:37.361Z,1.50
2018-09-29T19:40:06.835Z,1.40
2018-09-29T19:42:35.365Z,1.40
2018-09-29T19:45:03.747Z,1.60
2018-09-29T19:47:32.780Z,1.30
2018-09-29T19:50:02.111Z,1.53
2018-09-29T19:52:31.022Z,1.60
2018-09-29T19:54:59.473Z,1.57
2018-09-29T19:57:27.919Z,1.73
2018-09-29T19:59:56.634Z,1.67
2018-09-29T20:02:25.270Z,1.60
2018-09-29T20:04:53.637Z,1.53
2018-09-29T20:07:22.561Z,1.60
2018-09-29T20:09:50.967Z,1.27
2018-09-29T20:12:19.336Z,1.10
2018-09-29T20:14:48.648Z,1.67
2018-09-29T20:17:17.104Z,1.57
2018-09-29T20:19:45.650Z,2.03
2018-09-29T20:22:14.079Z,1.60
2018-09-29T20:24:43.063Z,1.77
2018-09-29T20:27:11.451Z,1.27
2018-09-29T20:29:41.476Z,1.53
2018-09-29T20:32:10.559Z,1.60
2018-09-29T20:34:39.062Z,1.70
2018-09-29T20:37:08.047Z,1.87
2018-09-29T20:39:36.795Z,1.30
2018-09-29T20:42:05.364Z,1.60
2018-09-29T20:44:34.440Z,1.40
2018-09-29T20:47:02.828Z,1.40
2018-09-29T20:49:31.370Z,1.33
2018-09-29T20:52:00.255Z,1.07
2018-09-29T20:54:28.772Z,1.33
2018-09-29T20:56:57.227Z,1.53
2018-09-29T20:59:26.220Z,1.70
2018-09-29T21:01:54.689Z,1.70
2018-09-29T21:04:23.039Z,1.50
2018-09-29T21:06:51.863Z,1.30
2018-09-29T21:09:20.303Z,1.40
2018-09-29T21:11:48.807Z,1.73
2018-09-29T21:14:17.366Z,1.80
2018-09-29T21:16:45.748Z,1.80
2018-09-29T21:19:14.131Z,1.60
2018-09-29T21:21:42.943Z,1.60
2018-09-29T21:24:11.281Z,1.77
2018-09-29T21:26:39.704Z,1.37
2018-09-29T21:29:08.591Z,1.60
2018-09-29T21:31:37.059Z,1.80
2018-09-29T21:34:05.476Z,2.03
2018-09-29T21:36:34.947Z,1.60
2018-09-29T21:39:03.676Z,1.40
2018-09-29T21:41:32.109Z,1.70
2018-09-29T21:44:00.923Z,1.80
2018-09-29T21:46:29.904Z,1.77
2018-09-29T21:48:59.014Z,1.50
2018-09-29T21:51:27.887Z,2.17
2018-09-29T21:53:56.305Z,2.57
2018-09-29T21:56:24.880Z,1.53
2018-09-29T21:58:53.739Z,1.50
2018-09-29T22:01:27.590Z,1.70
2018-09-29T22:03:56.112Z,1.90
2018-09-29T22:06:24.780Z,1.90
2018-09-29T22:08:53.171Z,1.60
2018-09-29T22:11:22.084Z,1.80
2018-09-29T22:13:50.436Z,1.80
2018-09-29T22:16:18.837Z,1.57
2018-09-29T22:18:47.652Z,1.67
2018-09-29T22:21:16.097Z,1.63
2018-09-29T22:23:44.486Z,1.90
2018-09-29T22:26:13.786Z,2.70
2018-09-29T22:28:42.170Z,1.83
2018-09-29T22:31:10.985Z,1.83
2018-09-29T22:33:39.744Z,1.97
2018-09-29T22:36:08.099Z,2.00
2018-09-29T22:38:36.466Z,2.20
2018-09-29T22:41:05.186Z,2.00
2018-09-29T22:43:33.547Z,2.87
2018-09-29T22:46:02.072Z,2.10
2018-09-29T22:48:30.831Z,2.27
2018-09-29T22:51:00.116Z,2.00
2018-09-29T22:53:28.478Z,2.13
2018-09-29T22:55:57.324Z,2.00
2018-09-29T22:58:25.939Z,1.97
2018-09-29T23:00:54.310Z,2.03
2018-09-29T23:03:23.058Z,1.90
2018-09-29T23:05:51.554Z,2.20
2018-09-29T23:08:19.916Z,1.67
2018-09-29T23:10:48.775Z,2.20
2018-09-29T23:13:17.148Z,1.93
2018-09-29T23:15:45.534Z,2.00
2018-09-29T23:18:14.340Z,1.93
2018-09-29T23:20:42.711Z,2.00
2018-09-29T23:23:11.067Z,2.17
2018-09-29T23:25:40.326Z,2.10
2018-09-29T23:28:08.698Z,1.70
2018-09-29T23:30:37.238Z,2.20
2018-09-29T23:33:06.129Z,1.77
2018-09-29T23:35:34.485Z,1.70
2018-09-29T23:38:02.887Z,2.20
2018-09-29T23:40:31.695Z,1.83
2018-09-29T23:43:00.099Z,1.80
2018-09-29T23:45:28.568Z,2.10
2018-09-29T23:47:57.583Z,2.03
2018-09-29T23:50:25.935Z,1.93
2018-09-29T23:52:54.335Z,1.70
2018-09-29T23:55:23.093Z,2.13
2018-09-29T23:57:52.253Z,2.00
